createdAt,value
2023-11-01T00:01:54.202Z,97602.44
2023-11-01T00:04:17.431Z,97601.34
2023-11-01T00:06:40.526Z,97609.66
2023-11-01T00:09:03.560Z,97610.47
2023-11-01T00:11:26.944Z,97604.31
2023-11-01T00:13:50.149Z,97604.03
2023-11-01T00:16:14.725Z,97596.06
2023-11-01T00:18:37.971Z,97604.03
2023-11-01T00:21:01.280Z,97609.28
2023-11-01T00:23:24.392Z,97603.78
2023-11-01T00:25:47.518Z,97595.66
2023-11-01T00:28:10.613Z,97599.22
2023-11-01T00:30:33.994Z,97586.13
2023-11-01T00:32:58.665Z,97585.31
2023-11-01T00:35:02.672Z,97587.09
2023-11-01T00:37:07.799Z,97586.66
2023-11-01T00:39:11.563Z,97586.94
2023-11-01T00:41:16.939Z,97586.47
2023-11-01T00:43:19.779Z,97587.41
2023-11-01T00:45:29.010Z,97584.38
2023-11-01T00:47:44.699Z,97582.00
2023-11-01T00:49:49.743Z,97572.50
2023-11-01T00:52:00.264Z,97571.81
2023-11-01T00:54:09.486Z,97582.84
2023-11-01T00:56:13.602Z,97583.94
2023-11-01T00:58:30.124Z,97574.28
2023-11-01T01:00:34.668Z,97582.00
2023-11-01T01:02:44.255Z,97578.31
2023-11-01T01:04:52.651Z,97576.25
2023-11-01T01:06:59.392Z,97570.06
2023-11-01T01:09:08.906Z,97574.47
2023-11-01T01:11:21.903Z,97570.06
2023-11-01T01:13:30.972Z,97576.25
2023-11-01T01:15:47.186Z,97569.81
2023-11-01T01:18:09.152Z,97567.06
2023-11-01T01:20:18.609Z,97566.00
2023-11-01T01:22:25.445Z,97568.34
2023-11-01T01:24:34.713Z,97571.78
2023-11-01T01:26:39.600Z,97569.03
2023-11-01T01:28:47.621Z,97573.31
2023-11-01T01:30:58.522Z,97567.94
2023-11-01T01:33:10.380Z,97572.38
2023-11-01T01:35:17.962Z,97565.19
2023-11-01T01:37:24.438Z,97565.19
2023-11-01T01:39:30.250Z,97569.34
2023-11-01T01:41:53.330Z,97563.00
2023-11-01T01:44:16.649Z,97564.94
2023-11-01T01:46:39.962Z,97556.97
2023-11-01T01:49:03.259Z,97548.97
2023-11-01T01:51:14.421Z,97551.47
2023-11-01T01:53:26.930Z,97548.97
2023-11-01T01:55:31.887Z,97549.78
2023-11-01T01:57:41.138Z,97542.91
2023-11-01T02:00:05.308Z,97537.69
2023-11-01T02:02:35.791Z,97538.63
2023-11-01T02:04:58.954Z,97529.25
2023-11-01T02:07:23.422Z,97519.75
2023-11-01T02:09:27.726Z,97517.41
2023-11-01T02:11:37.512Z,97513.94
2023-11-01T02:14:00.733Z,97514.78
2023-11-01T02:16:24.152Z,97513.13
2023-11-01T02:18:26.749Z,97504.31
2023-11-01T02:20:30.459Z,97500.03
2023-11-01T02:22:35.250Z,97499.09
2023-11-01T02:24:39.860Z,97495.75
2023-11-01T02:26:43.035Z,97501.13
2023-11-01T02:28:46.509Z,97508.16
2023-11-01T02:30:49.671Z,97505.53
2023-11-01T02:32:53.564Z,97510.50
2023-11-01T02:34:55.679Z,97508.56
2023-11-01T02:36:58.977Z,97502.38
2023-11-01T02:39:01.128Z,97503.34
2023-11-01T02:41:06.110Z,97498.09
2023-11-01T02:43:09.484Z,97509.56
2023-11-01T02:45:13.060Z,97497.41
2023-11-01T02:47:16.556Z,97494.13
2023-11-01T02:49:19.774Z,97498.50
2023-11-01T02:51:23.485Z,97495.06
2023-11-01T02:53:26.966Z,97491.63
2023-11-01T02:55:30.929Z,97491.63
2023-11-01T02:57:36.207Z,97487.22
2023-11-01T02:59:39.335Z,97488.19
2023-11-01T03:01:43.508Z,97486.41
2023-11-01T03:03:46.992Z,97491.63
2023-11-01T03:05:50.588Z,97487.47
2023-11-01T03:07:54.952Z,97489.28
2023-11-01T03:09:57.112Z,97491.06
2023-11-01T03:12:00.334Z,97494.59
2023-11-01T03:14:04.821Z,97491.44
2023-11-01T03:16:07.843Z,97486.22
2023-11-01T03:18:10.988Z,97486.34
2023-11-01T03:20:14.214Z,97474.22
2023-11-01T03:22:19.625Z,97481.09
2023-11-01T03:24:23.062Z,97478.50
2023-11-01T03:26:26.363Z,97475.03
2023-11-01T03:28:29.617Z,97471.59
2023-11-01T03:30:34.521Z,97466.50
2023-11-01T03:32:37.865Z,97460.31
2023-11-01T03:34:41.121Z,97462.91
2023-11-01T03:36:44.705Z,97467.31
2023-11-01T03:38:48.017Z,97466.34
2023-11-01T03:40:51.550Z,97474.22
2023-11-01T03:42:54.778Z,97467.31
2023-11-01T03:44:57.989Z,97470.91
2023-11-01T03:47:02.636Z,97471.03
2023-11-01T03:49:06.354Z,97470.06
2023-11-01T03:51:09.649Z,97464.81
2023-11-01T03:53:14.399Z,97470.91
2023-11-01T03:55:17.799Z,97460.56
2023-11-01T03:57:20.893Z,97463.19
2023-11-01T03:59:23.145Z,97462.34
2023-11-01T04:01:26.330Z,97453.00
2023-11-01T04:03:31.042Z,97453.25
2023-11-01T04:05:34.272Z,97446.63
2023-11-01T04:07:36.495Z,97450.31
2023-11-01T04:09:39.627Z,97451.28
2023-11-01T04:11:43.211Z,97454.88
2023-11-01T04:13:46.794Z,97456.78
2023-11-01T04:15:49.191Z,97448.09
2023-11-01T04:17:53.382Z,97448.22
2023-11-01T04:20:00.166Z,97444.09
2023-11-01T04:22:03.550Z,97441.88
2023-11-01T04:24:11.059Z,97440.47
2023-11-01T04:26:14.565Z,97435.53
2023-11-01T04:28:17.987Z,97439.38
2023-11-01T04:30:21.129Z,97436.19
2023-11-01T04:32:23.301Z,97431.06
2023-11-01T04:34:26.900Z,97437.41
2023-11-01T04:36:31.556Z,97437.53
2023-11-01T04:38:35.009Z,97433.25
2023-11-01T04:40:38.865Z,97433.25
2023-11-01T04:42:42.925Z,97427.22
2023-11-01T04:44:47.510Z,97426.38
2023-11-01T04:46:51.158Z,97423.06
2023-11-01T04:48:54.431Z,97411.94
2023-11-01T04:51:02.183Z,97411.22
2023-11-01T04:53:11.790Z,97408.16
2023-11-01T04:55:15.768Z,97409.13
2023-11-01T04:57:21.106Z,97399.63
2023-11-01T04:59:43.241Z,97401.53
2023-11-01T05:01:49.114Z,97399.06
2023-11-01T05:03:57.783Z,97394.81
2023-11-01T05:06:02.432Z,97393.25
2023-11-01T05:08:26.956Z,97398.75
2023-11-01T05:10:50.100Z,97390.22
2023-11-01T05:13:13.186Z,97391.44
2023-11-01T05:15:37.949Z,97385.78
2023-11-01T05:17:41.519Z,97386.97
2023-11-01T05:19:44.961Z,97381.31
2023-11-01T05:21:47.490Z,97376.09
2023-11-01T05:23:52.195Z,97375.28
2023-11-01T05:25:55.934Z,97370.06
2023-11-01T05:27:59.419Z,97367.44
2023-11-01T05:30:02.721Z,97375.41
2023-11-01T05:32:06.631Z,97373.75
2023-11-01T05:34:14.729Z,97376.75
2023-11-01T05:36:18.124Z,97373.84
2023-11-01T05:38:22.471Z,97372.56
2023-11-01T05:40:28.580Z,97374.88
2023-11-01T05:42:33.792Z,97372.75
2023-11-01T05:44:39.281Z,97367.88
2023-11-01T05:46:43.654Z,97364.84
2023-11-01T05:48:48.396Z,97359.03
2023-11-01T05:50:52.060Z,97361.88
2023-11-01T05:53:15.268Z,97357.78
2023-11-01T05:55:25.858Z,97354.84
2023-11-01T05:57:38.873Z,97360.56
2023-11-01T05:59:55.806Z,97357.50
2023-11-01T06:02:01.022Z,97356.81
2023-11-01T06:04:06.425Z,97363.94
2023-11-01T06:06:29.699Z,97360.84
2023-11-01T06:08:53.045Z,97366.31
2023-11-01T06:11:16.146Z,97364.94
2023-11-01T06:13:22.754Z,97359.25
2023-11-01T06:15:38.423Z,97368.03
2023-11-01T06:18:01.684Z,97363.06
2023-11-01T06:20:08.550Z,97358.09
2023-11-01T06:22:17.802Z,97354.81
2023-11-01T06:24:40.950Z,97360.41
2023-11-01T06:26:46.096Z,97363.50
2023-11-01T06:28:53.135Z,97360.28
2023-11-01T06:30:58.820Z,97360.28
2023-11-01T06:33:04.083Z,97365.84
2023-11-01T06:35:09.433Z,97363.06
2023-11-01T06:37:15.246Z,97361.81
2023-11-01T06:39:39.115Z,97350.38
2023-11-01T06:42:03.166Z,97357.91
2023-11-01T06:44:27.766Z,97358.50
2023-11-01T06:46:50.922Z,97357.91
2023-11-01T06:49:00.822Z,97359.19
2023-11-01T06:51:23.919Z,97360.09
2023-11-01T06:53:32.494Z,97359.16
2023-11-01T06:55:55.940Z,97362.22
2023-11-01T06:58:19.235Z,97365.78
2023-11-01T07:00:35.025Z,97360.94
2023-11-01T07:02:44.464Z,97355.97
2023-11-01T07:05:08.161Z,97366.44
2023-11-01T07:07:19.320Z,97367.13
2023-11-01T07:09:43.787Z,97363.03
2023-11-01T07:12:06.761Z,97368.13
2023-11-01T07:14:16.267Z,97368.53
2023-11-01T07:16:42.802Z,97366.56
2023-11-01T07:19:06.210Z,97364.34
2023-11-01T07:21:29.331Z,97371.09
2023-11-01T07:23:52.538Z,97364.50
2023-11-01T07:25:59.536Z,97359.53
2023-11-01T07:28:10.798Z,97347.97
2023-11-01T07:30:33.955Z,97344.69
2023-11-01T07:32:58.499Z,97348.91
2023-11-01T07:35:05.677Z,97355.38
2023-11-01T07:37:29.028Z,97338.31
2023-11-01T07:39:37.035Z,97343.78
2023-11-01T07:42:00.458Z,97354.22
2023-11-01T07:44:06.196Z,97346.00
2023-11-01T07:46:29.721Z,97347.97
2023-11-01T07:48:36.397Z,97351.31
2023-11-01T07:50:59.709Z,97355.50
2023-11-01T07:53:04.080Z,97354.56
2023-11-01T07:55:07.628Z,97350.34
2023-11-01T07:57:10.958Z,97351.97
2023-11-01T07:59:14.729Z,97346.09
2023-11-01T08:01:18.396Z,97346.66
2023-11-01T08:03:22.112Z,97344.09
2023-11-01T08:05:26.971Z,97346.84
2023-11-01T08:07:29.378Z,97331.03
2023-11-01T08:09:32.689Z,97337.41
2023-11-01T08:11:36.098Z,97344.19
2023-11-01T08:13:39.372Z,97335.66
2023-11-01T08:15:42.733Z,97330.72
2023-11-01T08:17:45.895Z,97332.81
2023-11-01T08:19:49.391Z,97332.66
2023-11-01T08:21:54.174Z,97341.03
2023-11-01T08:23:57.372Z,97343.41
2023-11-01T08:25:59.844Z,97327.94
2023-11-01T08:28:03.100Z,97328.78
2023-11-01T08:30:07.623Z,97332.50
2023-11-01T08:32:10.125Z,97331.34
2023-11-01T08:34:13.357Z,97331.03
2023-11-01T08:36:16.731Z,97326.88
2023-11-01T08:38:21.331Z,97329.88
2023-11-01T08:40:25.046Z,97324.44
2023-11-01T08:42:30.119Z,97329.38
2023-11-01T08:44:33.325Z,97326.44
2023-11-01T08:46:36.635Z,97330.91
2023-11-01T08:48:39.997Z,97336.03
2023-11-01T08:50:43.301Z,97337.03
2023-11-01T08:52:47.056Z,97336.78
2023-11-01T08:54:51.727Z,97343.63
2023-11-01T08:56:56.333Z,97343.44
2023-11-01T08:58:59.574Z,97347.47
2023-11-01T09:01:02.814Z,97347.56
2023-11-01T09:03:06.106Z,97338.63
2023-11-01T09:05:10.189Z,97337.81
2023-11-01T09:07:12.435Z,97337.41
2023-11-01T09:09:15.750Z,97335.53
2023-11-01T09:11:24.377Z,97326.44
2023-11-01T09:13:27.814Z,97332.09
2023-11-01T09:15:31.035Z,97334.75
2023-11-01T09:17:34.372Z,97333.13
2023-11-01T09:19:37.559Z,97330.13
2023-11-01T09:21:40.844Z,97335.44
2023-11-01T09:23:43.956Z,97332.41
2023-11-01T09:25:47.239Z,97331.47
2023-11-01T09:27:51.735Z,97340.00
2023-11-01T09:29:55.017Z,97334.63
2023-11-01T09:31:57.248Z,97334.47
2023-11-01T09:34:00.533Z,97329.44
2023-11-01T09:36:03.751Z,97331.47
2023-11-01T09:38:07.008Z,97334.59
2023-11-01T09:40:12.731Z,97340.63
2023-11-01T09:42:21.298Z,97345.94
2023-11-01T09:44:25.759Z,97330.69
2023-11-01T09:46:29.113Z,97329.75
2023-11-01T09:48:32.604Z,97313.31
2023-11-01T09:50:38.234Z,97322.66
2023-11-01T09:52:41.865Z,97326.63
2023-11-01T09:54:45.071Z,97319.38
2023-11-01T09:56:48.652Z,97316.22
2023-11-01T09:58:51.836Z,97315.56
2023-11-01T10:00:59.181Z,97310.94
2023-11-01T10:03:02.449Z,97314.09
2023-11-01T10:05:06.273Z,97307.84
2023-11-01T10:07:10.473Z,97302.94
2023-11-01T10:09:13.000Z,97298.53
2023-11-01T10:11:19.108Z,97295.59
2023-11-01T10:13:22.260Z,97294.63
2023-11-01T10:15:25.380Z,97299.72
2023-11-01T10:17:30.141Z,97296.59
2023-11-01T10:19:33.369Z,97296.75
2023-11-01T10:21:35.662Z,97283.72
2023-11-01T10:23:39.057Z,97283.44
2023-11-01T10:25:46.247Z,97276.38
2023-11-01T10:27:48.530Z,97281.47
2023-11-01T10:29:51.874Z,97283.94
2023-11-01T10:31:55.526Z,97270.25
2023-11-01T10:34:00.678Z,97257.09
2023-11-01T10:36:05.269Z,97263.34
2023-11-01T10:38:09.139Z,97258.56
2023-11-01T10:40:12.990Z,97240.25
2023-11-01T10:42:19.074Z,97245.06
2023-11-01T10:44:23.923Z,97238.13
2023-11-01T10:46:27.261Z,97233.34
2023-11-01T10:48:31.243Z,97238.44
2023-11-01T10:50:36.156Z,97233.00
2023-11-01T10:52:39.136Z,97227.88
2023-11-01T10:54:45.460Z,97227.25
2023-11-01T10:56:49.457Z,97221.31
2023-11-01T10:58:54.670Z,97217.53
2023-11-01T11:01:03.631Z,97222.81
2023-11-01T11:03:12.624Z,97214.91
2023-11-01T11:05:17.110Z,97211.63
2023-11-01T11:07:28.584Z,97204.69
2023-11-01T11:09:31.951Z,97200.06
2023-11-01T11:11:35.203Z,97191.81
2023-11-01T11:13:37.333Z,97185.41
2023-11-01T11:16:01.764Z,97190.00
2023-11-01T11:18:09.087Z,97177.97
2023-11-01T11:20:13.042Z,97175.13
2023-11-01T11:22:15.215Z,97168.69
2023-11-01T11:24:58.151Z,97170.19
2023-11-01T11:27:01.356Z,97167.22
2023-11-01T11:29:06.181Z,97152.84
2023-11-01T11:31:10.077Z,97149.22
2023-11-01T11:33:13.712Z,97149.69
2023-11-01T11:35:20.681Z,97143.09
2023-11-01T11:37:30.353Z,97140.91
2023-11-01T11:40:08.451Z,97147.03
2023-11-01T11:42:51.057Z,97137.28
2023-11-01T11:45:02.929Z,97137.13
2023-11-01T11:47:30.692Z,97133.34
2023-11-01T11:49:38.682Z,97134.13
2023-11-01T11:51:51.292Z,97134.59
2023-11-01T11:53:55.035Z,97132.47
2023-11-01T11:55:59.746Z,97120.94
2023-11-01T11:58:03.651Z,97117.84
2023-11-01T12:00:09.131Z,97115.84
2023-11-01T12:02:13.681Z,97110.22
2023-11-01T12:04:17.815Z,97110.56
2023-11-01T12:06:22.041Z,97106.44
2023-11-01T12:08:39.268Z,97102.53
2023-11-01T12:10:51.542Z,97108.16
2023-11-01T12:12:57.698Z,97106.72
2023-11-01T12:15:01.634Z,97104.59
2023-11-01T12:17:06.438Z,97110.22
2023-11-01T12:19:14.721Z,97108.09
2023-11-01T12:21:17.881Z,97094.09
2023-11-01T12:23:20.968Z,97099.38
2023-11-01T12:25:25.577Z,97101.38
2023-11-01T12:27:32.062Z,97089.16
2023-11-01T12:29:38.577Z,97075.63
2023-11-01T12:31:42.917Z,97085.03
2023-11-01T12:33:46.162Z,97078.78
2023-11-01T12:35:49.437Z,97077.94
2023-11-01T12:37:52.536Z,97079.25
2023-11-01T12:40:01.541Z,97076.84
2023-11-01T12:42:26.755Z,97075.13
2023-11-01T12:44:30.056Z,97079.69
2023-11-01T12:46:37.317Z,97073.34
2023-11-01T12:48:43.253Z,97067.19
2023-11-01T12:50:46.451Z,97064.69
2023-11-01T12:52:50.160Z,97059.09
2023-11-01T12:54:52.419Z,97062.38
2023-11-01T12:56:55.517Z,97062.38
2023-11-01T12:58:58.652Z,97053.16
2023-11-01T13:01:02.286Z,97046.41
2023-11-01T13:03:07.057Z,97045.09
2023-11-01T13:05:11.941Z,97042.97
2023-11-01T13:07:15.077Z,97036.41
2023-11-01T13:09:17.341Z,97037.13
2023-11-01T13:11:21.317Z,97031.34
2023-11-01T13:13:24.836Z,97023.34
2023-11-01T13:15:28.477Z,97014.13
2023-11-01T13:17:31.809Z,97017.94
2023-11-01T13:19:37.037Z,97010.38
2023-11-01T13:21:41.350Z,97008.09
2023-11-01T13:23:45.593Z,97006.97
2023-11-01T13:25:48.806Z,97006.84
2023-11-01T13:27:52.013Z,96996.81
2023-11-01T13:29:54.268Z,96996.19
2023-11-01T13:31:57.480Z,96991.72
2023-11-01T13:34:00.689Z,96988.28
2023-11-01T13:36:05.898Z,96996.81
2023-11-01T13:38:09.052Z,96981.81
2023-11-01T13:40:12.802Z,96988.91
2023-11-01T13:42:16.772Z,96985.25
2023-11-01T13:44:20.648Z,96980.66
2023-11-01T13:46:24.524Z,96986.56
2023-11-01T13:48:27.665Z,96979.63
2023-11-01T13:50:31.077Z,96975.09
2023-11-01T13:52:36.915Z,96981.50
2023-11-01T13:54:40.503Z,96982.66
2023-11-01T13:56:43.699Z,96968.84
2023-11-01T13:58:51.399Z,96969.19
2023-11-01T14:00:54.683Z,96963.47
2023-11-01T14:03:01.065Z,96967.09
2023-11-01T14:05:04.589Z,96961.00
2023-11-01T14:07:07.776Z,96958.53
2023-11-01T14:09:13.360Z,96950.81
2023-11-01T14:11:17.044Z,96946.50
2023-11-01T14:13:19.460Z,96951.63
2023-11-01T14:15:22.891Z,96938.78
2023-11-01T14:17:26.626Z,96935.16
2023-11-01T14:19:30.129Z,96931.69
2023-11-01T14:21:33.322Z,96925.25
2023-11-01T14:23:35.701Z,96935.97
2023-11-01T14:25:40.293Z,96936.78
2023-11-01T14:27:44.408Z,96937.13
2023-11-01T14:29:47.694Z,96934.84
2023-11-01T14:31:50.872Z,96938.31
2023-11-01T14:33:54.137Z,96930.09
2023-11-01T14:35:56.900Z,96934.63
2023-11-01T14:38:00.539Z,96944.66
2023-11-01T14:40:04.254Z,96935.66
2023-11-01T14:42:10.053Z,96938.13
2023-11-01T14:44:13.397Z,96927.28
2023-11-01T14:46:16.797Z,96926.16
2023-11-01T14:48:20.104Z,96923.22
2023-11-01T14:50:22.234Z,96921.94
2023-11-01T14:52:27.519Z,96916.16
2023-11-01T14:54:31.368Z,96927.03
2023-11-01T14:56:37.576Z,96927.03
2023-11-01T14:58:42.211Z,96930.69
2023-11-01T15:00:47.138Z,96926.28
2023-11-01T15:02:50.459Z,96927.75
2023-11-01T15:04:53.621Z,96935.19
2023-11-01T15:06:56.847Z,96935.53
2023-11-01T15:09:00.014Z,96932.72
2023-11-01T15:11:04.406Z,96933.06
2023-11-01T15:13:08.640Z,96932.53
2023-11-01T15:15:13.427Z,96933.41
2023-11-01T15:17:16.691Z,96930.94
2023-11-01T15:19:19.956Z,96930.94
2023-11-01T15:21:23.708Z,96922.38
2023-11-01T15:23:26.921Z,96916.47
2023-11-01T15:25:30.233Z,96916.81
2023-11-01T15:27:33.362Z,96919.13
2023-11-01T15:29:36.675Z,96914.38
2023-11-01T15:31:41.208Z,96905.84
2023-11-01T15:33:44.479Z,96906.00
2023-11-01T15:35:47.809Z,96915.69
2023-11-01T15:37:51.004Z,96906.00
2023-11-01T15:39:53.612Z,96904.50
2023-11-01T15:41:56.818Z,96902.88
2023-11-01T15:44:00.041Z,96902.88
2023-11-01T15:46:03.281Z,96905.31
2023-11-01T15:48:08.745Z,96905.50
2023-11-01T15:50:12.115Z,96906.50
2023-11-01T15:52:14.365Z,96908.13
2023-11-01T15:54:17.926Z,96893.03
2023-11-01T15:56:20.136Z,96892.84
2023-11-01T15:58:23.360Z,96893.66
2023-11-01T16:00:26.686Z,96891.03
2023-11-01T16:02:32.933Z,96893.66
2023-11-01T16:04:37.724Z,96888.06
2023-11-01T16:06:41.031Z,96889.72
2023-11-01T16:08:43.392Z,96896.28
2023-11-01T16:10:46.784Z,96893.66
2023-11-01T16:12:50.105Z,96892.00
2023-11-01T16:14:55.277Z,96903.38
2023-11-01T16:16:59.283Z,96890.72
2023-11-01T16:19:01.538Z,96894.00
2023-11-01T16:21:07.212Z,96893.00
2023-11-01T16:23:10.589Z,96903.19
2023-11-01T16:25:14.298Z,96905.34
2023-11-01T16:27:19.437Z,96905.69
2023-11-01T16:29:22.614Z,96908.63
2023-11-01T16:31:24.848Z,96903.88
2023-11-01T16:33:28.201Z,96897.63
2023-11-01T16:35:32.850Z,96896.66
2023-11-01T16:37:37.538Z,96904.19
2023-11-01T16:39:40.847Z,96903.53
2023-11-01T16:41:50.070Z,96909.75
2023-11-01T16:43:53.721Z,96902.03
2023-11-01T16:45:57.299Z,96898.59
2023-11-01T16:48:00.704Z,96910.09
2023-11-01T16:50:03.902Z,96910.41
2023-11-01T16:52:07.625Z,96918.59
2023-11-01T16:54:12.531Z,96901.38
2023-11-01T16:56:16.111Z,96903.16
2023-11-01T16:58:19.342Z,96902.53
2023-11-01T17:00:24.907Z,96893.16
2023-11-01T17:02:31.492Z,96893.34
2023-11-01T17:04:37.541Z,96894.31
2023-11-01T17:06:40.986Z,96896.28
2023-11-01T17:08:45.107Z,96887.06
2023-11-01T17:10:52.645Z,96891.66
2023-11-01T17:12:56.039Z,96897.06
2023-11-01T17:14:59.859Z,96896.22
2023-11-01T17:17:03.262Z,96889.50
2023-11-01T17:19:08.104Z,96885.56
2023-11-01T17:21:11.609Z,96886.53
2023-11-01T17:23:16.296Z,96886.34
2023-11-01T17:26:11.988Z,96880.13
2023-11-01T17:28:21.904Z,96873.22
2023-11-01T17:30:25.239Z,96866.84
2023-11-01T17:32:28.737Z,96867.66
2023-11-01T17:34:33.141Z,96866.69
2023-11-01T17:36:36.730Z,96867.66
2023-11-01T17:38:41.799Z,96860.47
2023-11-01T17:40:44.373Z,96860.63
2023-11-01T17:42:47.928Z,96861.28
2023-11-01T17:44:53.611Z,96862.06
2023-11-01T17:46:57.430Z,96869.31
2023-11-01T17:49:02.814Z,96870.97
2023-11-01T17:51:05.850Z,96869.00
2023-11-01T17:53:09.133Z,96870.63
2023-11-01T17:55:15.001Z,96868.66
2023-11-01T17:57:18.666Z,96865.88
2023-11-01T17:59:23.499Z,96862.59
2023-11-01T18:01:28.750Z,96868.66
2023-11-01T18:03:32.149Z,96859.81
2023-11-01T18:05:37.663Z,96869.31
2023-11-01T18:07:40.973Z,96865.72
2023-11-01T18:09:47.054Z,96866.69
2023-11-01T18:11:52.734Z,96864.06
2023-11-01T18:13:56.141Z,96858.81
2023-11-01T18:15:59.529Z,96844.22
2023-11-01T18:18:04.276Z,96852.91
2023-11-01T18:20:11.512Z,96854.72
2023-11-01T18:22:40.238Z,96855.84
2023-11-01T18:24:44.327Z,96865.38
2023-11-01T18:26:47.698Z,96869.63
2023-11-01T18:28:51.494Z,96877.34
2023-11-01T18:30:54.710Z,96877.50
2023-11-01T18:32:58.851Z,96885.41
2023-11-01T18:35:04.217Z,96886.56
2023-11-01T18:37:07.603Z,96890.63
2023-11-01T18:39:11.266Z,96892.09
2023-11-01T18:41:14.003Z,96881.09
2023-11-01T18:43:17.351Z,96879.13
2023-11-01T18:45:20.611Z,96873.88
2023-11-01T18:47:25.839Z,96885.38
2023-11-01T18:49:54.693Z,96896.53
2023-11-01T18:52:01.099Z,96900.13
2023-11-01T18:54:03.605Z,96895.72
2023-11-01T18:56:07.274Z,96894.72
2023-11-01T18:58:10.526Z,96899.97
2023-11-01T19:00:21.498Z,96905.06
2023-11-01T19:03:01.111Z,96908.16
2023-11-01T19:05:07.955Z,96902.75
2023-11-01T19:07:13.243Z,96894.22
2023-11-01T19:09:17.503Z,96896.31
2023-11-01T19:11:20.709Z,96891.56
2023-11-01T19:13:25.740Z,96878.63
2023-11-01T19:16:02.782Z,96879.91
2023-11-01T19:18:06.215Z,96881.72
2023-11-01T19:20:11.040Z,96877.59
2023-11-01T19:22:15.632Z,96885.13
2023-11-01T19:24:21.819Z,96888.22
2023-11-01T19:26:25.888Z,96891.34
2023-11-01T19:28:29.944Z,96863.75
2023-11-01T19:30:33.108Z,96862.31
2023-11-01T19:32:36.290Z,96860.16
2023-11-01T19:34:40.057Z,96859.16
2023-11-01T19:36:47.559Z,96867.88
2023-11-01T19:38:52.048Z,96868.19
2023-11-01T19:40:56.332Z,96884.25
2023-11-01T19:43:02.964Z,96878.97
2023-11-01T19:45:07.229Z,96879.78
2023-11-01T19:47:10.439Z,96866.34
2023-11-01T19:49:13.809Z,96867.66
2023-11-01T19:51:17.279Z,96869.31
2023-11-01T19:53:20.721Z,96863.09
2023-11-01T19:55:24.411Z,96859.94
2023-11-01T19:57:27.625Z,96856.34
2023-11-01T19:59:34.256Z,96847.16
2023-11-01T20:01:37.846Z,96843.06
2023-11-01T20:03:41.147Z,96840.28
2023-11-01T20:05:44.488Z,96842.06
2023-11-01T20:07:47.824Z,96840.44
2023-11-01T20:09:51.577Z,96827.63
2023-11-01T20:11:56.239Z,96829.41
2023-11-01T20:14:01.192Z,96833.34
2023-11-01T20:16:06.027Z,96841.84
2023-11-01T20:18:12.070Z,96841.03
2023-11-01T20:20:14.549Z,96828.88
2023-11-01T20:22:18.101Z,96827.38
2023-11-01T20:24:21.637Z,96825.22
2023-11-01T20:26:25.700Z,96822.44
2023-11-01T20:28:30.654Z,96835.25
2023-11-01T20:30:35.401Z,96844.38
2023-11-01T20:32:38.785Z,96843.41
2023-11-01T20:34:42.027Z,96840.06
2023-11-01T20:36:47.683Z,96835.31
2023-11-01T20:38:50.879Z,96842.78
2023-11-01T20:40:54.083Z,96857.06
2023-11-01T20:42:57.257Z,96852.75
2023-11-01T20:45:01.953Z,96855.50
2023-11-01T20:47:06.537Z,96856.28
2023-11-01T20:49:11.227Z,96858.16
2023-11-01T20:51:21.307Z,96857.81
2023-11-01T20:53:24.537Z,96855.19
2023-11-01T20:55:27.860Z,96848.44
2023-11-01T20:57:32.742Z,96845.34
2023-11-01T20:59:37.489Z,96834.03
2023-11-01T21:01:42.061Z,96829.59
2023-11-01T21:03:45.953Z,96825.78
2023-11-01T21:05:50.144Z,96826.09
2023-11-01T21:07:55.418Z,96832.50
2023-11-01T21:09:59.506Z,96825.91
2023-11-01T21:12:02.737Z,96824.78
2023-11-01T21:14:05.998Z,96829.19
2023-11-01T21:16:10.003Z,96822.31
2023-11-01T21:18:14.676Z,96817.69
2023-11-01T21:20:18.087Z,96826.66
2023-11-01T21:22:21.270Z,96836.16
2023-11-01T21:24:24.501Z,96837.50
2023-11-01T21:26:27.795Z,96828.81
2023-11-01T21:28:31.013Z,96824.94
2023-11-01T21:30:34.221Z,96825.28
2023-11-01T21:32:37.541Z,96815.47
2023-11-01T21:34:42.363Z,96805.69
2023-11-01T21:36:46.129Z,96804.69
2023-11-01T21:38:57.033Z,96798.78
2023-11-01T21:41:00.280Z,96791.25
2023-11-01T21:43:02.457Z,96789.88
2023-11-01T21:45:07.972Z,96793.66
2023-11-01T21:47:13.217Z,96788.19
2023-11-01T21:49:18.269Z,96787.84
2023-11-01T21:51:22.133Z,96785.22
2023-11-01T21:53:25.534Z,96790.47
2023-11-01T21:55:49.845Z,96779.31
2023-11-01T21:57:53.072Z,96775.06
2023-11-01T21:59:59.704Z,96782.25
2023-11-01T22:02:03.095Z,96783.50
2023-11-01T22:04:21.204Z,96786.44
2023-11-01T22:06:30.155Z,96772.03
2023-11-01T22:08:55.923Z,96773.00
2023-11-01T22:10:59.120Z,96768.22
2023-11-01T22:13:02.742Z,96764.94
2023-11-01T22:15:06.708Z,96760.66
2023-11-01T22:17:11.716Z,96753.94
2023-11-01T22:19:32.391Z,96750.94
2023-11-01T22:21:38.505Z,96753.22
2023-11-01T22:23:40.674Z,96744.00
2023-11-01T22:25:43.752Z,96736.56
2023-11-01T22:27:49.481Z,96740.19
2023-11-01T22:29:53.430Z,96726.56
2023-11-01T22:31:56.617Z,96724.09
2023-11-01T22:33:59.846Z,96718.22
2023-11-01T22:36:03.832Z,96710.50
2023-11-01T22:38:08.661Z,96699.84
2023-11-01T22:40:14.724Z,96700.28
2023-11-01T22:42:19.783Z,96686.53
2023-11-01T22:44:22.080Z,96689.44
2023-11-01T22:46:25.163Z,96680.94
2023-11-01T22:48:28.410Z,96671.59
2023-11-01T22:50:31.668Z,96667.50
2023-11-01T22:52:34.797Z,96658.59
2023-11-01T22:54:39.820Z,96661.97
2023-11-01T22:56:41.988Z,96663.00
2023-11-01T22:58:45.193Z,96654.81
2023-11-01T23:00:49.536Z,96643.69
2023-11-01T23:02:51.814Z,96638.47
2023-11-01T23:04:55.046Z,96642.69
2023-11-01T23:06:58.177Z,96635.16
2023-11-01T23:09:00.327Z,96630.94
2023-11-01T23:11:05.612Z,96621.72
2023-11-01T23:13:08.735Z,96617.63
2023-11-01T23:15:12.151Z,96616.44
2023-11-01T23:17:15.383Z,96618.69
2023-11-01T23:19:19.578Z,96605.91
2023-11-01T23:21:21.977Z,96611.75
2023-11-01T23:23:25.655Z,96610.25
2023-11-01T23:25:30.949Z,96612.03
2023-11-01T23:27:36.424Z,96600.91
2023-11-01T23:29:39.998Z,96595.47
2023-11-01T23:31:43.148Z,96589.16
2023-11-01T23:33:47.092Z,96585.69
2023-11-01T23:35:50.841Z,96579.94
2023-11-01T23:37:56.280Z,96568.28
2023-11-01T23:39:59.478Z,96574.09
2023-11-01T23:42:03.431Z,96565.16
2023-11-01T23:44:08.597Z,96561.38
2023-11-01T23:46:14.271Z,96558.69
2023-11-01T23:48:18.222Z,96553.19
2023-11-01T23:50:33.126Z,96548.41
2023-11-01T23:52:37.294Z,96545.44
2023-11-01T23:54:39.437Z,96545.72
2023-11-01T23:56:43.871Z,96548.47
2023-11-01T23:58:47.340Z,96533.13
